| time (UTC) | temp F | wind direction | speed MPH | gust MPH | rain 1hr in | rain 24hr in | rain mn in | humidity % | barometer mb |
| 20260507071527 | 29 | 172 | 1.0 | 6.0 | 0.00 | 0.00 | 0.00 | 80 | 1011.6 |
| 20260507070026 | 30 | 164 | 2.0 | 5.0 | 0.00 | 0.00 | 0.00 | 78 | 1011.8 |
| 20260507064519 | 31 | 150 | 2.0 | 4.0 | 0.00 | 0.00 | 0.00 | 74 | 1011.9 |
| 20260507063026 | 34 | 172 | 2.0 | 4.0 | 0.00 | 0.00 | 0.00 | 69 | 1012.0 |
| 20260507061512 | 35 | 124 | 5.0 | 10.0 | 0.00 | 0.00 | 0.00 | 65 | 1012.1 |
| 20260507060022 | 36 | 146 | 3.0 | 8.0 | 0.00 | 0.00 | 0.00 | 63 | 1012.2 |
| 20260507054506 | 37 | 132 | 2.0 | 8.0 | 0.00 | 0.00 | 0.00 | 63 | 1012.1 |
| 20260507053006 | 37 | 145 | 5.0 | 10.0 | 0.00 | 0.00 | 0.00 | 62 | 1012.2 |
| 20260507051501 | 38 | 130 | 3.0 | 8.0 | 0.00 | 0.00 | 0.00 | 61 | 1012.4 |
| 20260507044559 | 39 | 88 | 4.0 | 10.0 | 0.00 | 0.00 | 0.00 | 60 | 1012.6 |
| 20260507043055 | 38 | 115 | 5.0 | 7.0 | 0.00 | 0.00 | 0.00 | 60 | 1012.8 |
| 20260507041554 | 39 | 103 | 3.0 | 8.0 | 0.00 | 0.00 | 0.00 | 58 | 1012.8 |
| 20260507040053 | 39 | 92 | 7.0 | 12.0 | 0.00 | 0.00 | 0.00 | 58 | 1013.1 |
| 20260507034552 | 39 | 101 | 7.0 | 10.0 | 0.00 | 0.00 | 0.00 | 58 | 1013.2 |
| 20260507033051 | 39 | 82 | 7.0 | 9.0 | 0.00 | 0.00 | 0.00 | 59 | 1013.4 |
| 20260507031554 | 39 | 99 | 2.0 | 4.0 | 0.00 | 0.00 | 0.00 | 58 | 1013.5 |
| 20260507030051 | 40 | 95 | 7.0 | 10.0 | 0.00 | 0.00 | 0.00 | 57 | 1013.4 |
| 20260507024550 | 41 | 88 | 5.0 | 10.0 | 0.00 | 0.00 | 0.00 | 54 | 1013.2 |
| 20260507023051 | 42 | 83 | 9.0 | 12.0 | 0.00 | 0.00 | 0.00 | 52 | 1013.1 |
| 20260507021548 | 44 | 92 | 9.0 | 11.0 | 0.00 | 0.00 | 0.00 | 49 | 1013.1 |
| 20260507020051 | 45 | 72 | 8.0 | 10.0 | 0.00 | 0.00 | 0.00 | 47 | 1013.1 |
| 20260507014552 | 45 | 74 | 5.0 | 8.0 | 0.00 | 0.00 | 0.00 | 47 | 1013.1 |
| 20260507013058 | 46 | 78 | 4.0 | 5.0 | 0.00 | 0.00 | 0.00 | 46 | 1013.1 |
| 20260507011547 | 47 | 75 | 4.0 | 7.0 | 0.00 | 0.00 | 0.00 | 45 | 1013.0 |
| 20260507010055 | 48 | 74 | 4.0 | 8.0 | 0.00 | 0.00 | 0.00 | 42 | 1013.2 |
| 20260507004547 | 49 | 72 | 5.0 | 9.0 | 0.00 | 0.00 | 0.00 | 41 | 1013.2 |
| 20260507003043 | 50 | 64 | 3.0 | 7.0 | 0.00 | 0.00 | 0.00 | 39 | 1013.3 |
| 20260507001544 | 50 | 338 | 0.0 | 5.0 | 0.00 | 0.00 | 0.00 | 40 | 1013.4 |
| 20260507000041 | 50 | 287 | 3.0 | 10.0 | 0.00 | 0.00 | 0.00 | 39 | 1013.5 |
| 20260506234538 | 50 | 296 | 4.0 | 11.0 | 0.00 | 0.00 | 0.00 | 40 | 1013.6 |
| 20260506233054 | 50 | 303 | 1.0 | 5.0 | 0.00 | 0.00 | 0.00 | 38 | 1013.8 |
| 20260506231539 | 50 | 10 | 1.0 | 9.0 | 0.00 | 0.00 | 0.00 | 41 | 1013.9 |
| 20260506230033 | 52 | 268 | 4.0 | 9.0 | 0.00 | 0.00 | 0.00 | 35 | 1013.9 |
| 20260506224531 | 51 | 300 | 3.0 | 12.0 | 0.00 | 0.00 | 0.00 | 37 | 1014.1 |
| 20260506223029 | 51 | 280 | 3.0 | 10.0 | 0.00 | 0.00 | 0.00 | 40 | 1014.2 |
| 20260506221528 | 51 | 40 | 3.0 | 9.0 | 0.00 | 0.00 | 0.00 | 37 | 1014.3 |
| 20260506220030 | 50 | 300 | 3.0 | 9.0 | 0.00 | 0.00 | 0.00 | 41 | 1014.4 |
| 20260506214525 | 51 | 336 | 4.0 | 11.0 | 0.00 | 0.00 | 0.00 | 39 | 1014.6 |
| 20260506213026 | 51 | 294 | 4.0 | 8.0 | 0.00 | 0.00 | 0.00 | 40 | 1014.7 |
| 20260506211526 | 51 | 72 | 3.0 | 12.0 | 0.00 | 0.00 | 0.00 | 38 | 1015.0 |
| 20260506210026 | 49 | 296 | 7.0 | 13.0 | 0.00 | 0.00 | 0.00 | 41 | 1015.1 |
| 20260506204515 | 49 | 38 | 4.0 | 13.0 | 0.00 | 0.00 | 0.00 | 41 | 1015.2 |
| 20260506203012 | 49 | 293 | 4.0 | 11.0 | 0.00 | 0.00 | 0.00 | 42 | 1015.4 |
| 20260506201511 | 48 | 355 | 4.0 | 14.0 | 0.00 | 0.00 | 0.00 | 42 | 1015.6 |
| 20260506200025 | 48 | 298 | 8.0 | 15.0 | 0.00 | 0.00 | 0.00 | 42 | 1015.7 |
| 20260506194508 | 49 | 279 | 4.0 | 13.0 | 0.00 | 0.00 | 0.00 | 43 | 1016.0 |
| 20260506193007 | 47 | 313 | 5.0 | 17.0 | 0.00 | 0.00 | 0.00 | 44 | 1016.1 |
| 20260506191504 | 48 | 307 | 8.0 | 15.0 | 0.00 | 0.00 | 0.00 | 44 | 1016.2 |
| 20260506190002 | 48 | 256 | 7.0 | 14.0 | 0.00 | 0.00 | 0.00 | 45 | 1016.3 |
| 20260506184620 | 47 | 323 | 5.0 | 13.0 | 0.00 | 0.00 | 0.00 | 45 | 1016.3 |
| 20260506183059 | 46 | 309 | 5.0 | 14.0 | 0.00 | 0.00 | 0.00 | 46 | 1016.6 |
| 20260506181557 | 46 | 17 | 4.0 | 15.0 | 0.00 | 0.00 | 0.00 | 47 | 1016.8 |
| 20260506180055 | 46 | 313 | 5.0 | 13.0 | 0.00 | 0.00 | 0.00 | 45 | 1017.0 |
| 20260506174552 | 45 | 302 | 6.0 | 21.0 | 0.00 | 0.00 | 0.00 | 46 | 1017.1 |
| 20260506173104 | 44 | 271 | 10.0 | 15.0 | 0.00 | 0.00 | 0.00 | 48 | 1017.4 |
| 20260506171553 | 44 | 326 | 7.0 | 18.0 | 0.00 | 0.00 | 0.00 | 49 | 1017.5 |
| 20260506170058 | 45 | 296 | 3.0 | 13.0 | 0.00 | 0.00 | 0.00 | 50 | 1017.7 |
| 20260506164603 | 43 | 307 | 5.0 | 17.0 | 0.00 | 0.00 | 0.00 | 50 | 1017.9 |
| 20260506163045 | 43 | 304 | 7.0 | 14.0 | 0.00 | 0.00 | 0.00 | 49 | 1018.0 |
| 20260506161542 | 42 | 297 | 5.0 | 12.0 | 0.00 | 0.00 | 0.00 | 51 | 1018.0 |
| 20260506160049 | 42 | 254 | 11.0 | 16.0 | 0.00 | 0.00 | 0.00 | 50 | 1018.0 |
| 20260506154549 | 42 | 301 | 4.0 | 9.0 | 0.00 | 0.00 | 0.00 | 51 | 1018.1 |
| 20260506153037 | 42 | 280 | 3.0 | 13.0 | 0.00 | 0.00 | 0.00 | 51 | 1018.1 |
| 20260506151536 | 42 | 339 | 2.0 | 8.0 | 0.00 | 0.00 | 0.00 | 54 | 1018.1 |
| 20260506150036 | 41 | 283 | 2.0 | 8.0 | 0.00 | 0.00 | 0.00 | 54 | 1018.2 |
| 20260506144532 | 41 | 293 | 4.0 | 9.0 | 0.00 | 0.00 | 0.00 | 55 | 1018.3 |
| 20260506143034 | 40 | 311 | 3.0 | 8.0 | 0.00 | 0.00 | 0.00 | 59 | 1018.3 |
| 20260506141525 | 39 | 288 | 1.0 | 3.0 | 0.00 | 0.00 | 0.00 | 62 | 1018.4 |
| 20260506140021 | 38 | 260 | 0.0 | 4.0 | 0.00 | 0.00 | 0.00 | 70 | 1018.4 |
| 20260506134517 | 37 | 260 | 2.0 | 4.0 | 0.00 | 0.00 | 0.00 | 76 | 1018.4 |
| 20260506133014 | 36 | 268 | 4.0 | 8.0 | 0.00 | 0.00 | 0.00 | 77 | 1018.3 |
| 20260506131516 | 35 | 275 | 4.0 | 9.0 | 0.00 | 0.00 | 0.00 | 76 | 1018.3 |
| 20260506130014 | 35 | 271 | 4.0 | 7.0 | 0.00 | 0.00 | 0.00 | 78 | 1018.2 |
| 20260506124505 | 34 | 275 | 2.0 | 4.0 | 0.00 | 0.00 | 0.00 | 81 | 1018.1 |
| 20260506123003 | 33 | 265 | 1.0 | 4.0 | 0.00 | 0.00 | 0.00 | 82 | 1017.9 |
| 20260506121613 | 33 | 265 | 0.0 | 1.0 | 0.00 | 0.00 | 0.00 | 82 | 1017.6 |
| 20260506120120 | 33 | 265 | 2.0 | 4.0 | 0.00 | 0.00 | 0.00 | 84 | 1017.4 |
| 20260506114555 | 32 | 319 | 0.0 | 0.0 | 0.00 | 0.00 | 0.00 | 84 | 1017.3 |
| 20260506113058 | 31 | 319 | 0.0 | 2.0 | 0.00 | 0.00 | 0.00 | 85 | 1017.3 |
| 20260506111553 | 31 | 319 | 0.0 | 3.0 | 0.00 | 0.00 | 0.00 | 85 | 1017.3 |
| 20260506110054 | 31 | 319 | 0.0 | 1.0 | 0.00 | 0.00 | 0.00 | 84 | 1017.2 |
| 20260506104552 | 31 | 319 | 0.0 | 2.0 | 0.00 | 0.00 | 0.00 | 84 | 1017.1 |
| 20260506103053 | 31 | 319 | 0.0 | 3.0 | 0.00 | 0.00 | 0.00 | 84 | 1017.2 |
| 20260506101550 | 31 | 319 | 0.0 | 0.0 | 0.00 | 0.00 | 0.00 | 84 | 1017.3 |
| 20260506100049 | 31 | 319 | 0.0 | 0.0 | 0.00 | 0.00 | 0.00 | 84 | 1017.2 |
| 20260506094549 | 31 | 319 | 0.0 | 0.0 | 0.00 | 0.00 | 0.00 | 82 | 1017.2 |
| 20260506093051 | 31 | 319 | 0.0 | 2.0 | 0.00 | 0.00 | 0.00 | 82 | 1017.2 |
| 20260506091546 | 31 | 319 | 1.0 | 4.0 | 0.00 | 0.00 | 0.00 | 81 | 1017.1 |
| 20260506090045 | 31 | 319 | 0.0 | 2.0 | 0.00 | 0.00 | 0.00 | 80 | 1017.1 |
| 20260506084543 | 31 | 319 | 0.0 | 2.0 | 0.00 | 0.00 | 0.00 | 79 | 1016.9 |
| 20260506083044 | 31 | 319 | 0.0 | 1.0 | 0.00 | 0.00 | 0.00 | 80 | 1016.9 |
| 20260506081540 | 31 | 319 | 0.0 | 3.0 | 0.00 | 0.00 | 0.00 | 80 | 1016.9 |
| 20260506073038 | 30 | 319 | 1.0 | 4.0 | 0.00 | 0.00 | 0.00 | 80 | 1016.8 |